sensor_id;sensor_type;location;lat;lon;timestamp;temperature;humidity
6740;DHT22;3407;49.882;10.920;2023-02-18T00:03:05;9.60;99.90
6740;DHT22;3407;49.882;10.920;2023-02-18T00:08:00;9.60;99.90
6740;DHT22;3407;49.882;10.920;2023-02-18T00:12:56;9.60;99.90
6740;DHT22;3407;49.882;10.920;2023-02-18T00:17:51;9.60;99.90
6740;DHT22;3407;49.882;10.920;2023-02-18T00:22:47;9.60;99.90
6740;DHT22;3407;49.882;10.920;2023-02-18T00:27:42;9.60;99.90
6740;DHT22;3407;49.882;10.920;2023-02-18T00:32:38;9.60;99.90
6740;DHT22;3407;49.882;10.920;2023-02-18T00:37:33;9.60;99.90
6740;DHT22;3407;49.882;10.920;2023-02-18T00:42:29;9.60;99.90
6740;DHT22;3407;49.882;10.920;2023-02-18T00:47:24;9.60;99.90
6740;DHT22;3407;49.882;10.920;2023-02-18T00:52:20;9.60;99.90
6740;DHT22;3407;49.882;10.920;2023-02-18T00:57:15;9.60;99.90
6740;DHT22;3407;49.882;10.920;2023-02-18T01:02:11;9.60;99.90
6740;DHT22;3407;49.882;10.920;2023-02-18T01:07:06;9.60;99.90
6740;DHT22;3407;49.882;10.920;2023-02-18T01:12:04;9.60;99.90
6740;DHT22;3407;49.882;10.920;2023-02-18T01:17:00;9.60;99.90
6740;DHT22;3407;49.882;10.920;2023-02-18T01:21:56;9.60;99.90
6740;DHT22;3407;49.882;10.920;2023-02-18T01:26:51;9.60;99.90
6740;DHT22;3407;49.882;10.920;2023-02-18T01:31:47;9.60;99.90
6740;DHT22;3407;49.882;10.920;2023-02-18T01:36:42;9.60;99.90
6740;DHT22;3407;49.882;10.920;2023-02-18T01:41:38;9.60;99.90
6740;DHT22;3407;49.882;10.920;2023-02-18T01:46:33;9.60;99.90
6740;DHT22;3407;49.882;10.920;2023-02-18T01:51:32;9.60;99.90
6740;DHT22;3407;49.882;10.920;2023-02-18T01:56:35;9.60;99.90
6740;DHT22;3407;49.882;10.920;2023-02-18T02:01:32;9.60;99.90
6740;DHT22;3407;49.882;10.920;2023-02-18T02:06:28;9.60;99.90
6740;DHT22;3407;49.882;10.920;2023-02-18T02:22:34;9.50;99.90
6740;DHT22;3407;49.882;10.920;2023-02-18T02:38:07;9.60;99.90
6740;DHT22;3407;49.882;10.920;2023-02-18T02:43:20;9.60;99.90
6740;DHT22;3407;49.882;10.920;2023-02-18T02:48:41;9.50;99.90
6740;DHT22;3407;49.882;10.920;2023-02-18T02:53:40;9.60;99.90
6740;DHT22;3407;49.882;10.920;2023-02-18T02:58:37;9.50;99.90
6740;DHT22;3407;49.882;10.920;2023-02-18T03:04:03;9.60;99.90
6740;DHT22;3407;49.882;10.920;2023-02-18T03:09:15;9.50;99.90
6740;DHT22;3407;49.882;10.920;2023-02-18T03:14:42;9.60;99.90
6740;DHT22;3407;49.882;10.920;2023-02-18T03:19:48;9.60;99.90
6740;DHT22;3407;49.882;10.920;2023-02-18T03:24:47;9.60;99.90
6740;DHT22;3407;49.882;10.920;2023-02-18T03:29:46;9.60;99.90
6740;DHT22;3407;49.882;10.920;2023-02-18T03:34:47;9.60;99.90
6740;DHT22;3407;49.882;10.920;2023-02-18T03:39:45;9.60;99.90
6740;DHT22;3407;49.882;10.920;2023-02-18T03:44:43;9.60;99.90
6740;DHT22;3407;49.882;10.920;2023-02-18T03:49:39;9.60;99.90
6740;DHT22;3407;49.882;10.920;2023-02-18T03:54:34;9.60;99.90
6740;DHT22;3407;49.882;10.920;2023-02-18T03:59:30;9.60;99.90
6740;DHT22;3407;49.882;10.920;2023-02-18T04:04:25;9.50;99.90
6740;DHT22;3407;49.882;10.920;2023-02-18T04:09:21;9.60;99.90
6740;DHT22;3407;49.882;10.920;2023-02-18T04:14:17;9.60;99.90
6740;DHT22;3407;49.882;10.920;2023-02-18T04:19:12;9.50;99.90
6740;DHT22;3407;49.882;10.920;2023-02-18T04:24:08;9.50;99.90
6740;DHT22;3407;49.882;10.920;2023-02-18T04:29:03;9.50;99.90
6740;DHT22;3407;49.882;10.920;2023-02-18T04:33:59;9.50;99.90
6740;DHT22;3407;49.882;10.920;2023-02-18T04:38:54;9.40;99.90
6740;DHT22;3407;49.882;10.920;2023-02-18T04:43:50;9.40;99.90
6740;DHT22;3407;49.882;10.920;2023-02-18T04:48:45;9.40;99.90
6740;DHT22;3407;49.882;10.920;2023-02-18T04:53:41;9.40;99.90
6740;DHT22;3407;49.882;10.920;2023-02-18T04:58:36;9.40;99.90
6740;DHT22;3407;49.882;10.920;2023-02-18T05:03:32;9.40;99.90
6740;DHT22;3407;49.882;10.920;2023-02-18T05:08:28;9.30;99.90
6740;DHT22;3407;49.882;10.920;2023-02-18T05:13:23;9.30;99.90
6740;DHT22;3407;49.882;10.920;2023-02-18T05:18:18;9.30;99.90
6740;DHT22;3407;49.882;10.920;2023-02-18T05:23:14;9.40;99.90
6740;DHT22;3407;49.882;10.920;2023-02-18T05:28:10;9.40;99.90
6740;DHT22;3407;49.882;10.920;2023-02-18T05:33:05;9.40;99.90
6740;DHT22;3407;49.882;10.920;2023-02-18T05:38:01;9.30;99.90
6740;DHT22;3407;49.882;10.920;2023-02-18T05:42:56;9.40;99.90
6740;DHT22;3407;49.882;10.920;2023-02-18T05:47:52;9.30;99.90
6740;DHT22;3407;49.882;10.920;2023-02-18T05:52:47;9.30;99.90
6740;DHT22;3407;49.882;10.920;2023-02-18T05:57:43;9.30;99.90
6740;DHT22;3407;49.882;10.920;2023-02-18T06:02:38;9.40;99.90
6740;DHT22;3407;49.882;10.920;2023-02-18T06:07:34;9.30;99.90
6740;DHT22;3407;49.882;10.920;2023-02-18T06:12:30;9.30;99.90
6740;DHT22;3407;49.882;10.920;2023-02-18T06:17:25;9.30;99.90
6740;DHT22;3407;49.882;10.920;2023-02-18T06:22:21;9.30;99.90
6740;DHT22;3407;49.882;10.920;2023-02-18T06:27:16;9.30;99.90
6740;DHT22;3407;49.882;10.920;2023-02-18T06:32:12;9.40;99.90
6740;DHT22;3407;49.882;10.920;2023-02-18T06:37:07;9.40;99.90
6740;DHT22;3407;49.882;10.920;2023-02-18T06:42:03;9.40;99.90
6740;DHT22;3407;49.882;10.920;2023-02-18T06:46:59;9.40;99.90
6740;DHT22;3407;49.882;10.920;2023-02-18T06:51:54;9.40;99.90
6740;DHT22;3407;49.882;10.920;2023-02-18T06:56:50;9.40;99.90
6740;DHT22;3407;49.882;10.920;2023-02-18T07:01:48;9.50;99.90
6740;DHT22;3407;49.882;10.920;2023-02-18T07:06:43;9.50;99.90
6740;DHT22;3407;49.882;10.920;2023-02-18T07:11:39;9.60;99.90
6740;DHT22;3407;49.882;10.920;2023-02-18T07:16:34;9.60;99.90
6740;DHT22;3407;49.882;10.920;2023-02-18T07:21:30;9.60;99.90
6740;DHT22;3407;49.882;10.920;2023-02-18T07:26:25;9.60;99.90
6740;DHT22;3407;49.882;10.920;2023-02-18T07:31:21;9.60;99.90
6740;DHT22;3407;49.882;10.920;2023-02-18T07:36:16;9.60;99.90
6740;DHT22;3407;49.882;10.920;2023-02-18T07:41:22;9.60;99.90
6740;DHT22;3407;49.882;10.920;2023-02-18T07:46:18;9.60;99.90
6740;DHT22;3407;49.882;10.920;2023-02-18T07:51:13;9.80;99.90
6740;DHT22;3407;49.882;10.920;2023-02-18T07:56:09;10.00;99.90
6740;DHT22;3407;49.882;10.920;2023-02-18T08:01:10;10.10;99.90
6740;DHT22;3407;49.882;10.920;2023-02-18T08:06:06;10.20;99.90
6740;DHT22;3407;49.882;10.920;2023-02-18T08:11:02;10.20;99.90
6740;DHT22;3407;49.882;10.920;2023-02-18T08:15:58;10.30;99.90
6740;DHT22;3407;49.882;10.920;2023-02-18T08:20:53;10.30;92.40
6740;DHT22;3407;49.882;10.920;2023-02-18T08:25:51;10.40;87.90
6740;DHT22;3407;49.882;10.920;2023-02-18T08:30:49;10.60;70.40
6740;DHT22;3407;49.882;10.920;2023-02-18T08:35:46;11.20;48.20
6740;DHT22;3407;49.882;10.920;2023-02-18T08:40:42;11.60;10.40
6740;DHT22;3407;49.882;10.920;2023-02-18T08:45:38;11.90;1.00
6740;DHT22;3407;49.882;10.920;2023-02-18T08:50:33;11.90;1.00
6740;DHT22;3407;49.882;10.920;2023-02-18T08:55:30;11.90;1.00
6740;DHT22;3407;49.882;10.920;2023-02-18T09:00:26;11.90;1.00
6740;DHT22;3407;49.882;10.920;2023-02-18T09:05:22;11.90;1.00
6740;DHT22;3407;49.882;10.920;2023-02-18T09:10:18;12.10;1.00
6740;DHT22;3407;49.882;10.920;2023-02-18T09:15:13;12.20;1.00
6740;DHT22;3407;49.882;10.920;2023-02-18T09:20:09;12.40;1.00
6740;DHT22;3407;49.882;10.920;2023-02-18T09:25:05;12.70;1.00
6740;DHT22;3407;49.882;10.920;2023-02-18T09:30:01;13.10;1.00
6740;DHT22;3407;49.882;10.920;2023-02-18T09:34:57;14.00;1.00
6740;DHT22;3407;49.882;10.920;2023-02-18T09:39:52;14.50;99.90
6740;DHT22;3407;49.882;10.920;2023-02-18T09:44:51;14.60;1.00
6740;DHT22;3407;49.882;10.920;2023-02-18T09:49:53;14.00;99.90
6740;DHT22;3407;49.882;10.920;2023-02-18T09:54:49;13.60;99.90
6740;DHT22;3407;49.882;10.920;2023-02-18T09:59:46;13.50;1.00
6740;DHT22;3407;49.882;10.920;2023-02-18T10:04:44;13.30;1.00
6740;DHT22;3407;49.882;10.920;2023-02-18T10:09:47;13.00;29.60
6740;DHT22;3407;49.882;10.920;2023-02-18T10:14:53;12.80;99.90
6740;DHT22;3407;49.882;10.920;2023-02-18T10:19:51;12.60;99.90
6740;DHT22;3407;49.882;10.920;2023-02-18T10:24:54;12.40;1.00
6740;DHT22;3407;49.882;10.920;2023-02-18T10:29:51;12.30;1.00
6740;DHT22;3407;49.882;10.920;2023-02-18T10:34:52;12.60;1.00
6740;DHT22;3407;49.882;10.920;2023-02-18T10:40:13;12.80;99.90
6740;DHT22;3407;49.882;10.920;2023-02-18T10:45:30;12.50;99.90
6740;DHT22;3407;49.882;10.920;2023-02-18T10:50:31;12.40;1.00
6740;DHT22;3407;49.882;10.920;2023-02-18T10:55:40;12.30;99.90
6740;DHT22;3407;49.882;10.920;2023-02-18T11:00:38;12.20;99.90
6740;DHT22;3407;49.882;10.920;2023-02-18T11:05:35;12.20;99.90
6740;DHT22;3407;49.882;10.920;2023-02-18T11:10:38;12.20;99.90
6740;DHT22;3407;49.882;10.920;2023-02-18T11:15:34;12.10;99.90
6740;DHT22;3407;49.882;10.920;2023-02-18T11:20:33;12.00;99.90
6740;DHT22;3407;49.882;10.920;2023-02-18T11:25:34;11.90;1.00
6740;DHT22;3407;49.882;10.920;2023-02-18T11:30:35;11.90;43.40
6740;DHT22;3407;49.882;10.920;2023-02-18T11:35:32;11.80;1.00
6740;DHT22;3407;49.882;10.920;2023-02-18T11:40:30;11.80;1.00
6740;DHT22;3407;49.882;10.920;2023-02-18T11:45:32;11.80;99.90
6740;DHT22;3407;49.882;10.920;2023-02-18T11:50:32;11.80;99.90
6740;DHT22;3407;49.882;10.920;2023-02-18T11:55:29;11.90;1.00
6740;DHT22;3407;49.882;10.920;2023-02-18T12:00:49;11.90;1.00
6740;DHT22;3407;49.882;10.920;2023-02-18T12:05:47;12.00;99.90
6740;DHT22;3407;49.882;10.920;2023-02-18T12:10:50;12.10;99.90
6740;DHT22;3407;49.882;10.920;2023-02-18T12:15:53;12.20;99.90
6740;DHT22;3407;49.882;10.920;2023-02-18T12:21:19;12.30;1.00
6740;DHT22;3407;49.882;10.920;2023-02-18T12:26:27;12.20;32.10
6740;DHT22;3407;49.882;10.920;2023-02-18T12:42:24;12.20;1.00
6740;DHT22;3407;49.882;10.920;2023-02-18T12:47:28;12.20;99.90
6740;DHT22;3407;49.882;10.920;2023-02-18T12:52:37;12.10;99.90
6740;DHT22;3407;49.882;10.920;2023-02-18T12:57:42;12.10;99.90
6740;DHT22;3407;49.882;10.920;2023-02-18T13:13:12;12.90;1.00
6740;DHT22;3407;49.882;10.920;2023-02-18T13:18:30;13.30;99.90
6740;DHT22;3407;49.882;10.920;2023-02-18T13:23:32;13.10;1.00
6740;DHT22;3407;49.882;10.920;2023-02-18T13:34:03;13.50;1.00
6740;DHT22;3407;49.882;10.920;2023-02-18T13:39:11;13.20;1.00
6740;DHT22;3407;49.882;10.920;2023-02-18T13:49:21;12.70;1.00
6740;DHT22;3407;49.882;10.920;2023-02-18T13:54:25;12.40;5.90
6740;DHT22;3407;49.882;10.920;2023-02-18T13:59:41;12.20;99.90
6740;DHT22;3407;49.882;10.920;2023-02-18T14:09:44;12.00;99.90
6740;DHT22;3407;49.882;10.920;2023-02-18T14:14:40;11.90;1.00
6740;DHT22;3407;49.882;10.920;2023-02-18T14:19:35;11.90;1.00
6740;DHT22;3407;49.882;10.920;2023-02-18T14:24:48;11.90;1.00
6740;DHT22;3407;49.882;10.920;2023-02-18T14:29:44;11.80;1.00
6740;DHT22;3407;49.882;10.920;2023-02-18T14:40:24;11.70;99.90
6740;DHT22;3407;49.882;10.920;2023-02-18T14:50:38;11.70;1.00
6740;DHT22;3407;49.882;10.920;2023-02-18T14:55:41;11.60;1.00
6740;DHT22;3407;49.882;10.920;2023-02-18T15:00:40;11.60;99.90
6740;DHT22;3407;49.882;10.920;2023-02-18T15:05:37;11.60;1.00
6740;DHT22;3407;49.882;10.920;2023-02-18T15:10:42;11.60;1.00
6740;DHT22;3407;49.882;10.920;2023-02-18T15:15:38;11.60;1.00
6740;DHT22;3407;49.882;10.920;2023-02-18T15:20:37;11.50;95.00
6740;DHT22;3407;49.882;10.920;2023-02-18T15:25:33;11.50;99.90
6740;DHT22;3407;49.882;10.920;2023-02-18T15:30:30;11.50;99.90
6740;DHT22;3407;49.882;10.920;2023-02-18T15:35:29;11.40;99.90
6740;DHT22;3407;49.882;10.920;2023-02-18T15:40:29;11.30;1.00
6740;DHT22;3407;49.882;10.920;2023-02-18T15:45:40;11.30;99.90
6740;DHT22;3407;49.882;10.920;2023-02-18T15:50:44;11.30;1.00
6740;DHT22;3407;49.882;10.920;2023-02-18T15:55:46;11.30;81.80
6740;DHT22;3407;49.882;10.920;2023-02-18T16:00:54;11.20;1.00
6740;DHT22;3407;49.882;10.920;2023-02-18T16:06:06;11.20;1.00
6740;DHT22;3407;49.882;10.920;2023-02-18T16:11:08;11.20;1.00
6740;DHT22;3407;49.882;10.920;2023-02-18T16:16:05;11.10;1.00
6740;DHT22;3407;49.882;10.920;2023-02-18T16:26:09;11.00;99.90
6740;DHT22;3407;49.882;10.920;2023-02-18T16:31:05;10.90;1.00
6740;DHT22;3407;49.882;10.920;2023-02-18T16:36:00;10.90;1.00
6740;DHT22;3407;49.882;10.920;2023-02-18T16:40:56;10.90;68.10
6740;DHT22;3407;49.882;10.920;2023-02-18T16:45:56;10.90;99.90
6740;DHT22;3407;49.882;10.920;2023-02-18T16:50:52;10.80;99.90
6740;DHT22;3407;49.882;10.920;2023-02-18T16:55:49;10.80;99.90
6740;DHT22;3407;49.882;10.920;2023-02-18T17:00:45;10.70;99.90
6740;DHT22;3407;49.882;10.920;2023-02-18T17:05:41;10.70;99.90
6740;DHT22;3407;49.882;10.920;2023-02-18T17:10:37;10.70;99.90
6740;DHT22;3407;49.882;10.920;2023-02-18T17:15:34;10.70;99.90
6740;DHT22;3407;49.882;10.920;2023-02-18T17:20:31;10.70;1.00
6740;DHT22;3407;49.882;10.920;2023-02-18T17:25:37;10.60;1.00
6740;DHT22;3407;49.882;10.920;2023-02-18T17:30:39;10.70;1.00
6740;DHT22;3407;49.882;10.920;2023-02-18T17:35:35;10.70;1.00
6740;DHT22;3407;49.882;10.920;2023-02-18T17:40:30;10.60;1.00
6740;DHT22;3407;49.882;10.920;2023-02-18T17:45:27;10.60;1.00
6740;DHT22;3407;49.882;10.920;2023-02-18T17:50:23;10.60;1.00
6740;DHT22;3407;49.882;10.920;2023-02-18T17:55:28;10.50;1.00
6740;DHT22;3407;49.882;10.920;2023-02-18T18:00:32;10.50;1.00
6740;DHT22;3407;49.882;10.920;2023-02-18T18:05:34;10.50;1.00
6740;DHT22;3407;49.882;10.920;2023-02-18T18:10:32;10.50;1.00
6740;DHT22;3407;49.882;10.920;2023-02-18T18:15:38;10.40;1.00
6740;DHT22;3407;49.882;10.920;2023-02-18T18:20:35;10.40;1.00
6740;DHT22;3407;49.882;10.920;2023-02-18T18:25:41;10.40;1.00
6740;DHT22;3407;49.882;10.920;2023-02-18T18:30:39;10.40;1.00
6740;DHT22;3407;49.882;10.920;2023-02-18T18:35:35;10.40;1.00
6740;DHT22;3407;49.882;10.920;2023-02-18T18:40:33;10.30;1.00
6740;DHT22;3407;49.882;10.920;2023-02-18T18:45:31;10.30;1.00
6740;DHT22;3407;49.882;10.920;2023-02-18T18:50:27;10.30;1.00
6740;DHT22;3407;49.882;10.920;2023-02-18T18:55:27;10.30;1.00
6740;DHT22;3407;49.882;10.920;2023-02-18T19:00:32;10.20;1.00
6740;DHT22;3407;49.882;10.920;2023-02-18T19:05:33;10.20;1.00
6740;DHT22;3407;49.882;10.920;2023-02-18T19:10:38;10.20;1.00
6740;DHT22;3407;49.882;10.920;2023-02-18T19:15:34;10.20;1.00
6740;DHT22;3407;49.882;10.920;2023-02-18T19:20:32;10.20;1.00
6740;DHT22;3407;49.882;10.920;2023-02-18T19:25:30;10.10;1.00
6740;DHT22;3407;49.882;10.920;2023-02-18T19:30:31;10.10;1.00
6740;DHT22;3407;49.882;10.920;2023-02-18T19:35:28;10.10;1.00
6740;DHT22;3407;49.882;10.920;2023-02-18T19:40:26;10.10;1.00
6740;DHT22;3407;49.882;10.920;2023-02-18T19:45:22;10.10;1.00
6740;DHT22;3407;49.882;10.920;2023-02-18T19:50:18;10.10;1.00
6740;DHT22;3407;49.882;10.920;2023-02-18T19:55:14;10.10;1.00
6740;DHT22;3407;49.882;10.920;2023-02-18T20:00:12;10.00;1.00
6740;DHT22;3407;49.882;10.920;2023-02-18T20:05:09;10.10;1.00
6740;DHT22;3407;49.882;10.920;2023-02-18T20:10:06;10.10;1.00
6740;DHT22;3407;49.882;10.920;2023-02-18T20:15:02;10.20;1.00
6740;DHT22;3407;49.882;10.920;2023-02-18T20:19:58;10.00;1.00
6740;DHT22;3407;49.882;10.920;2023-02-18T20:24:53;10.00;1.00
6740;DHT22;3407;49.882;10.920;2023-02-18T20:29:49;9.90;1.00
6740;DHT22;3407;49.882;10.920;2023-02-18T20:34:45;9.90;1.00
6740;DHT22;3407;49.882;10.920;2023-02-18T20:39:41;9.90;1.00
6740;DHT22;3407;49.882;10.920;2023-02-18T20:44:37;9.90;1.00
6740;DHT22;3407;49.882;10.920;2023-02-18T20:49:32;9.80;1.00
6740;DHT22;3407;49.882;10.920;2023-02-18T20:54:29;9.80;1.00
6740;DHT22;3407;49.882;10.920;2023-02-18T20:59:25;9.90;1.00
6740;DHT22;3407;49.882;10.920;2023-02-18T21:04:21;9.80;1.00
6740;DHT22;3407;49.882;10.920;2023-02-18T21:09:17;9.80;1.00
6740;DHT22;3407;49.882;10.920;2023-02-18T21:14:12;9.80;1.00
6740;DHT22;3407;49.882;10.920;2023-02-18T21:19:12;9.80;1.00
6740;DHT22;3407;49.882;10.920;2023-02-18T21:24:08;9.70;1.00
6740;DHT22;3407;49.882;10.920;2023-02-18T21:29:07;9.70;1.00
6740;DHT22;3407;49.882;10.920;2023-02-18T21:34:04;9.80;1.00
6740;DHT22;3407;49.882;10.920;2023-02-18T21:39:02;9.80;1.00
6740;DHT22;3407;49.882;10.920;2023-02-18T21:43:57;9.70;1.00
6740;DHT22;3407;49.882;10.920;2023-02-18T21:48:53;9.70;1.00
6740;DHT22;3407;49.882;10.920;2023-02-18T21:54:03;9.70;1.00
6740;DHT22;3407;49.882;10.920;2023-02-18T21:58:59;9.70;1.00
6740;DHT22;3407;49.882;10.920;2023-02-18T22:03:54;9.70;1.00
6740;DHT22;3407;49.882;10.920;2023-02-18T22:08:50;9.70;1.00
6740;DHT22;3407;49.882;10.920;2023-02-18T22:13:45;9.70;1.00
6740;DHT22;3407;49.882;10.920;2023-02-18T22:18:41;9.60;1.00
6740;DHT22;3407;49.882;10.920;2023-02-18T22:23:37;9.60;1.00
6740;DHT22;3407;49.882;10.920;2023-02-18T22:28:33;9.60;3.70
6740;DHT22;3407;49.882;10.920;2023-02-18T22:33:28;9.50;15.80
6740;DHT22;3407;49.882;10.920;2023-02-18T22:38:24;9.40;24.20
6740;DHT22;3407;49.882;10.920;2023-02-18T22:43:19;9.40;27.30
6740;DHT22;3407;49.882;10.920;2023-02-18T22:48:15;9.40;26.70
6740;DHT22;3407;49.882;10.920;2023-02-18T22:53:11;9.40;22.60
6740;DHT22;3407;49.882;10.920;2023-02-18T22:58:06;9.40;15.60
6740;DHT22;3407;49.882;10.920;2023-02-18T23:03:02;9.40;19.70
6740;DHT22;3407;49.882;10.920;2023-02-18T23:07:57;9.40;18.80
6740;DHT22;3407;49.882;10.920;2023-02-18T23:12:53;9.40;10.10
6740;DHT22;3407;49.882;10.920;2023-02-18T23:17:49;9.50;3.70
6740;DHT22;3407;49.882;10.920;2023-02-18T23:22:45;9.50;1.00
6740;DHT22;3407;49.882;10.920;2023-02-18T23:27:40;9.50;1.00
6740;DHT22;3407;49.882;10.920;2023-02-18T23:32:36;9.50;1.00
6740;DHT22;3407;49.882;10.920;2023-02-18T23:37:31;9.50;1.00
6740;DHT22;3407;49.882;10.920;2023-02-18T23:42:46;9.60;1.00
6740;DHT22;3407;49.882;10.920;2023-02-18T23:47:41;9.60;1.00
6740;DHT22;3407;49.882;10.920;2023-02-18T23:52:37;9.60;1.00
6740;DHT22;3407;49.882;10.920;2023-02-18T23:57:32;9.60;1.00
